Time;durP1;ratioP1;P1;durP2;ratioP2;P2;SDS_P1;SDS_P2;PMS_P1;PMS_P2;Temp;Humidity;BMP_temperature;BMP_pressure;BME280_temperature;BME280_humidity;BME280_pressure;Samples;Min_cycle;Max_cycle;Signal;HPM_P1;HPM_P2
2022/06/11 00:01:10;;;;;;;;;;;25.30;50.10;;;;;;5058119;28;19920;-61
2022/06/11 00:03:35;;;;;;;;;;;25.30;50.10;;;;;;5056459;28;19908;-62
2022/06/11 00:06:02;;;;;;;;;;;25.30;50.10;;;;;;5074402;28;19908;-61
2022/06/11 00:08:27;;;;;;;;;;;25.30;50.10;;;;;;5040102;28;20011;-61
2022/06/11 00:10:52;;;;;;;;;;;25.20;50.10;;;;;;5068924;28;20431;-61
2022/06/11 00:13:22;;;;;;;;;;;25.20;50.00;;;;;;5054177;28;20300;-61
2022/06/11 00:15:48;;;;;;;;;;;25.20;50.00;;;;;;5052948;28;19912;-61
2022/06/11 00:18:13;;;;;;;;;;;25.20;50.00;;;;;;5054106;28;19909;-61
2022/06/11 00:20:39;;;;;;;;;;;25.20;50.00;;;;;;5054063;28;19912;-61
2022/06/11 00:23:04;;;;;;;;;;;25.30;50.10;;;;;;5053990;28;19999;-61
2022/06/11 00:25:32;;;;;;;;;;;25.30;50.10;;;;;;5054177;28;19909;-61
2022/06/11 00:27:58;;;;;;;;;;;25.30;50.10;;;;;;5069183;28;19909;-61
2022/06/11 00:30:23;;;;;;;;;;;25.30;50.00;;;;;;5053720;28;19931;-62
2022/06/11 00:32:49;;;;;;;;;;;25.20;50.00;;;;;;5053751;28;20004;-61
2022/06/11 00:35:15;;;;;;;;;;;25.30;50.10;;;;;;5052574;28;19908;-61
2022/06/11 00:37:41;;;;;;;;;;;25.30;50.70;;;;;;5054866;28;19916;-61
2022/06/11 00:40:06;;;;;;;;;;;25.20;50.00;;;;;;5055792;28;19909;-61
2022/06/11 00:42:33;;;;;;;;;;;25.20;50.10;;;;;;5055746;28;19931;-61
2022/06/11 00:45:17;;;;;;;;;;;25.20;50.00;;;;;;5073528;28;20374;-60
2022/06/11 00:47:43;;;;;;;;;;;25.20;50.00;;;;;;5073199;28;19916;-61
2022/06/11 00:50:23;;;;;;;;;;;25.20;50.10;;;;;;5073488;28;20368;-61
2022/06/11 00:52:49;;;;;;;;;;;25.20;50.10;;;;;;5073441;28;19920;-61
2022/06/11 00:55:19;;;;;;;;;;;25.20;50.10;;;;;;5073343;28;19949;-61
2022/06/11 00:57:46;;;;;;;;;;;25.20;50.10;;;;;;5055631;28;19908;-61
2022/06/11 01:00:15;;;;;;;;;;;25.20;50.00;;;;;;5055518;28;19908;-61
2022/06/11 01:02:42;;;;;;;;;;;25.20;50.00;;;;;;5073403;28;19908;-61
2022/06/11 01:05:08;;;;;;;;;;;25.20;50.00;;;;;;5073130;28;19908;-61
2022/06/11 01:07:57;;;;;;;;;;;25.20;50.00;;;;;;5073301;28;19997;-61
2022/06/11 01:10:26;;;;;;;;;;;25.20;50.00;;;;;;5035253;28;19912;-61
2022/06/11 01:12:57;;;;;;;;;;;25.20;49.90;;;;;;5053122;28;20361;-60
2022/06/11 01:15:35;;;;;;;;;;;25.20;50.00;;;;;;5053163;28;19916;-61
2022/06/11 01:18:19;;;;;;;;;;;25.20;50.00;;;;;;5053123;28;19931;-61
2022/06/11 01:21:05;;;;;;;;;;;25.20;50.10;;;;;;5052686;28;19916;-61
2022/06/11 01:23:33;;;;;;;;;;;25.20;50.00;;;;;;5031881;28;19909;-61
2022/06/11 01:26:02;;;;;;;;;;;25.20;50.00;;;;;;5052970;28;19913;-61
2022/06/11 01:28:48;;;;;;;;;;;25.20;50.10;;;;;;5053016;28;19909;-61
2022/06/11 01:31:17;;;;;;;;;;;25.10;50.00;;;;;;5018694;28;19913;-61
2022/06/11 01:33:52;;;;;;;;;;;25.20;50.10;;;;;;5052957;28;19951;-61
2022/06/11 01:36:18;;;;;;;;;;;25.20;50.10;;;;;;5035146;28;19916;-61
2022/06/11 01:38:50;;;;;;;;;;;25.20;50.10;;;;;;5044772;28;19908;-61
2022/06/11 01:41:31;;;;;;;;;;;25.10;50.00;;;;;;5055031;28;19908;-61
2022/06/11 01:43:58;;;;;;;;;;;25.20;50.20;;;;;;5072692;28;19913;-61
2022/06/11 01:46:26;;;;;;;;;;;25.10;50.10;;;;;;5072757;28;19908;-61
2022/06/11 01:48:57;;;;;;;;;;;25.10;50.10;;;;;;5055006;28;19914;-61
2022/06/11 01:51:25;;;;;;;;;;;25.10;50.20;;;;;;5072696;28;19924;-61
2022/06/11 01:53:51;;;;;;;;;;;25.10;50.20;;;;;;5072734;28;19909;-61
2022/06/11 01:56:22;;;;;;;;;;;25.10;50.10;;;;;;5072737;28;20013;-61
2022/06/11 01:58:48;;;;;;;;;;;25.10;50.10;;;;;;5054834;28;19909;-61
2022/06/11 02:01:27;;;;;;;;;;;25.10;50.10;;;;;;5072703;28;20383;-62
2022/06/11 02:04:01;;;;;;;;;;;25.10;50.20;;;;;;5054788;28;19913;-61
2022/06/11 02:06:30;;;;;;;;;;;25.10;50.30;;;;;;5072621;28;19916;-61
2022/06/11 02:09:04;;;;;;;;;;;25.10;50.30;;;;;;5072494;28;19930;-61
2022/06/11 02:11:44;;;;;;;;;;;25.10;50.30;;;;;;5054741;28;20020;-61
2022/06/11 02:14:12;;;;;;;;;;;25.10;50.30;;;;;;5054780;28;19919;-61
2022/06/11 02:16:49;;;;;;;;;;;25.10;50.30;;;;;;5071389;28;19915;-61
2022/06/11 02:19:15;;;;;;;;;;;25.10;50.30;;;;;;5054641;28;20296;-61
2022/06/11 02:21:43;;;;;;;;;;;25.10;50.30;;;;;;5072451;28;19948;-61
2022/06/11 02:24:10;;;;;;;;;;;25.10;50.30;;;;;;5071227;28;19912;-61
2022/06/11 02:26:40;;;;;;;;;;;25.10;50.30;;;;;;5054627;28;19935;-61
2022/06/11 02:29:06;;;;;;;;;;;25.10;50.40;;;;;;5054570;28;19908;-61
2022/06/11 02:31:32;;;;;;;;;;;25.10;50.40;;;;;;5072515;28;20342;-61
2022/06/11 02:34:02;;;;;;;;;;;25.00;50.40;;;;;;5057549;28;20365;-61
2022/06/11 02:36:28;;;;;;;;;;;25.00;50.40;;;;;;5041494;28;19963;-61
2022/06/11 02:38:55;;;;;;;;;;;25.10;50.40;;;;;;5058274;28;19934;-61
2022/06/11 02:41:22;;;;;;;;;;;25.10;50.40;;;;;;5058212;28;20041;-60
2022/06/11 02:43:48;;;;;;;;;;;25.10;50.40;;;;;;5058069;28;19916;-61
2022/06/11 02:48:58;;;;;;;;;;;25.10;50.30;;;;;;5060715;28;20395;-61
2022/06/11 02:51:24;;;;;;;;;;;25.10;50.30;;;;;;5057869;28;19916;-61
2022/06/11 02:53:49;;;;;;;;;;;25.00;50.40;;;;;;5057838;28;19961;-61
2022/06/11 02:56:14;;;;;;;;;;;25.10;50.40;;;;;;5091258;28;19953;-61
2022/06/11 02:58:40;;;;;;;;;;;25.10;50.40;;;;;;5075661;28;19913;-61
2022/06/11 03:01:06;;;;;;;;;;;25.10;50.40;;;;;;5057667;28;19916;-62
2022/06/11 03:03:31;;;;;;;;;;;25.10;50.40;;;;;;5075481;28;19916;-62
2022/06/11 03:05:58;;;;;;;;;;;25.10;50.50;;;;;;5075469;28;19908;-61
2022/06/11 03:08:23;;;;;;;;;;;25.00;50.40;;;;;;5075414;28;19944;-60
2022/06/11 03:10:54;;;;;;;;;;;25.00;50.40;;;;;;5074084;28;20009;-61
2022/06/11 03:13:20;;;;;;;;;;;25.00;50.40;;;;;;5082185;28;20014;-61
2022/06/11 03:15:46;;;;;;;;;;;25.00;50.50;;;;;;5075397;28;20384;-60
2022/06/11 03:18:12;;;;;;;;;;;25.00;50.50;;;;;;5057446;28;19916;-61
2022/06/11 03:20:37;;;;;;;;;;;25.00;50.60;;;;;;5090828;28;19909;-61
2022/06/11 03:23:02;;;;;;;;;;;25.00;50.60;;;;;;5090773;28;19991;-61
2022/06/11 03:25:28;;;;;;;;;;;25.00;50.60;;;;;;5075160;28;19908;-61
2022/06/11 03:27:54;;;;;;;;;;;25.00;50.60;;;;;;5075149;28;19908;-62
2022/06/11 03:30:19;;;;;;;;;;;25.00;50.60;;;;;;5074979;28;19913;-62
2022/06/11 03:32:45;;;;;;;;;;;25.00;50.60;;;;;;5074861;28;19966;-61
2022/06/11 03:35:10;;;;;;;;;;;25.00;50.70;;;;;;5074898;28;19908;-61
2022/06/11 03:37:35;;;;;;;;;;;24.90;50.50;;;;;;5074977;28;19909;-61
2022/06/11 03:40:01;;;;;;;;;;;24.90;50.60;;;;;;5054994;28;19909;-61
2022/06/11 03:42:26;;;;;;;;;;;24.90;50.60;;;;;;5054878;28;19909;-61
2022/06/11 03:44:52;;;;;;;;;;;24.90;50.60;;;;;;5035886;28;19999;-61
2022/06/11 03:47:17;;;;;;;;;;;24.90;50.60;;;;;;5036642;28;20027;-61
2022/06/11 03:49:43;;;;;;;;;;;24.90;50.60;;;;;;5054705;28;19916;-61
2022/06/11 03:52:10;;;;;;;;;;;24.90;50.60;;;;;;5054534;28;20399;-61
2022/06/11 03:54:35;;;;;;;;;;;24.90;50.70;;;;;;5037048;28;20003;-61
2022/06/11 03:57:01;;;;;;;;;;;24.90;50.70;;;;;;5054491;28;19955;-61
2022/06/11 03:59:26;;;;;;;;;;;24.90;50.60;;;;;;5054794;28;19967;-61
2022/06/11 04:01:51;;;;;;;;;;;24.90;50.70;;;;;;5054864;28;19916;-61
2022/06/11 04:04:18;;;;;;;;;;;24.90;50.70;;;;;;5054298;28;19909;-61
2022/06/11 04:06:48;;;;;;;;;;;24.90;50.70;;;;;;5054364;28;20335;-60
2022/06/11 04:09:17;;;;;;;;;;;24.90;50.70;;;;;;5068263;28;20376;-61
2022/06/11 04:11:43;;;;;;;;;;;24.90;50.70;;;;;;5074197;28;20437;-61
2022/06/11 04:14:08;;;;;;;;;;;24.90;50.70;;;;;;5074084;28;19916;-61
2022/06/11 04:16:54;;;;;;;;;;;24.90;50.70;;;;;;5056283;28;19915;-61
2022/06/11 04:19:21;;;;;;;;;;;24.90;50.70;;;;;;5073441;28;20394;-61
2022/06/11 04:21:46;;;;;;;;;;;24.90;50.70;;;;;;5056198;28;20380;-61
2022/06/11 04:24:12;;;;;;;;;;;24.90;50.70;;;;;;5089564;28;19916;-61
2022/06/11 04:26:38;;;;;;;;;;;24.90;50.60;;;;;;5056063;28;19909;-61
2022/06/11 04:29:04;;;;;;;;;;;24.90;50.70;;;;;;5056025;28;19955;-61
2022/06/11 04:31:30;;;;;;;;;;;24.90;50.80;;;;;;5089374;28;19916;-61
2022/06/11 04:33:55;;;;;;;;;;;24.90;50.80;;;;;;5055953;28;19917;-61
2022/06/11 04:36:21;;;;;;;;;;;24.90;50.80;;;;;;5055894;28;19943;-61
2022/06/11 04:38:47;;;;;;;;;;;24.90;50.80;;;;;;5073575;28;19908;-61
2022/06/11 04:41:12;;;;;;;;;;;24.90;50.80;;;;;;5073631;28;19908;-61
2022/06/11 04:43:38;;;;;;;;;;;24.90;50.80;;;;;;5073661;28;19916;-61
2022/06/11 04:46:03;;;;;;;;;;;24.90;50.90;;;;;;5073610;28;19909;-61
2022/06/11 04:48:29;;;;;;;;;;;24.90;50.70;;;;;;5073470;28;20445;-61
2022/06/11 04:50:54;;;;;;;;;;;24.90;50.80;;;;;;5073610;28;19931;-61
2022/06/11 04:53:20;;;;;;;;;;;24.90;50.70;;;;;;5055634;28;20343;-61
2022/06/11 04:55:45;;;;;;;;;;;24.90;50.70;;;;;;5073236;28;19909;-61
2022/06/11 04:58:11;;;;;;;;;;;24.90;50.70;;;;;;5073461;28;19912;-61
2022/06/11 05:00:36;;;;;;;;;;;24.90;50.70;;;;;;5073321;28;19955;-61
2022/06/11 05:03:02;;;;;;;;;;;24.90;50.80;;;;;;5073265;28;19909;-62
2022/06/11 05:05:27;;;;;;;;;;;24.90;50.80;;;;;;5055404;28;19908;-61
2022/06/11 05:07:53;;;;;;;;;;;24.90;50.90;;;;;;5073267;28;20033;-61
2022/06/11 05:10:19;;;;;;;;;;;24.90;50.90;;;;;;5071872;28;19909;-61
2022/06/11 05:12:44;;;;;;;;;;;24.90;50.80;;;;;;5073211;28;19919;-61
2022/06/11 05:15:10;;;;;;;;;;;24.90;50.80;;;;;;5073077;28;19909;-61
2022/06/11 05:17:36;;;;;;;;;;;24.90;50.80;;;;;;5073505;28;19908;-61
2022/06/11 05:20:01;;;;;;;;;;;24.90;50.80;;;;;;5073175;28;19958;-61
2022/06/11 05:22:27;;;;;;;;;;;24.80;50.70;;;;;;5073142;28;20261;-61
2022/06/11 05:24:52;;;;;;;;;;;24.80;50.90;;;;;;5055251;28;20428;-61
2022/06/11 05:27:19;;;;;;;;;;;24.80;50.90;;;;;;5073030;28;19908;-61
2022/06/11 05:29:56;;;;;;;;;;;24.80;50.90;;;;;;5073302;28;19908;-61
2022/06/11 05:32:27;;;;;;;;;;;24.80;51.00;;;;;;5062289;28;20414;-61
2022/06/11 05:34:53;;;;;;;;;;;24.80;51.00;;;;;;5055163;28;19916;-61
2022/06/11 05:37:18;;;;;;;;;;;24.80;50.90;;;;;;5073219;28;19908;-61
2022/06/11 05:39:44;;;;;;;;;;;24.70;51.60;;;;;;5072929;28;20361;-61
2022/06/11 05:42:09;;;;;;;;;;;24.70;51.00;;;;;;5088312;28;19981;-61
2022/06/11 05:44:35;;;;;;;;;;;24.80;51.20;;;;;;5072918;28;19909;-60
2022/06/11 05:47:00;;;;;;;;;;;24.80;51.20;;;;;;5072646;28;20260;-61
2022/06/11 05:49:27;;;;;;;;;;;24.80;51.10;;;;;;5055081;28;19908;-61
2022/06/11 05:51:54;;;;;;;;;;;24.80;51.10;;;;;;5054911;28;19923;-61
2022/06/11 05:54:23;;;;;;;;;;;24.80;51.00;;;;;;5088641;28;19920;-61
2022/06/11 05:56:49;;;;;;;;;;;24.80;51.00;;;;;;5072887;28;19919;-61
2022/06/11 05:59:17;;;;;;;;;;;24.80;51.10;;;;;;5072693;28;20280;-61
2022/06/11 06:01:42;;;;;;;;;;;24.70;51.10;;;;;;5072757;28;19909;-61
2022/06/11 06:04:08;;;;;;;;;;;24.80;51.20;;;;;;5037870;28;19962;-62
2022/06/11 06:06:34;;;;;;;;;;;24.80;51.10;;;;;;5073016;28;20361;-61
2022/06/11 06:08:59;;;;;;;;;;;24.70;51.10;;;;;;5075815;28;19938;-61
2022/06/11 06:11:26;;;;;;;;;;;24.70;51.10;;;;;;5076449;28;19962;-61
2022/06/11 06:13:51;;;;;;;;;;;24.70;51.20;;;;;;5076502;28;20449;-61
2022/06/11 06:16:18;;;;;;;;;;;24.70;51.10;;;;;;5076718;28;19909;-62
2022/06/11 06:18:44;;;;;;;;;;;24.70;51.10;;;;;;5076458;28;19909;-61
2022/06/11 06:21:09;;;;;;;;;;;24.80;51.20;;;;;;5091987;28;20361;-61
2022/06/11 06:23:35;;;;;;;;;;;24.80;51.10;;;;;;5074942;28;19915;-61
2022/06/11 06:26:00;;;;;;;;;;;24.80;51.10;;;;;;5076179;28;19914;-61
2022/06/11 06:28:26;;;;;;;;;;;24.80;51.00;;;;;;5076220;28;19908;-61
2022/06/11 06:30:51;;;;;;;;;;;24.80;51.10;;;;;;5058247;28;19912;-61
2022/06/11 06:33:17;;;;;;;;;;;24.80;51.00;;;;;;5076050;28;20340;-61
2022/06/11 06:35:42;;;;;;;;;;;24.80;51.00;;;;;;5058619;28;20388;-61
2022/06/11 06:38:08;;;;;;;;;;;24.80;51.00;;;;;;5057994;28;20338;-61
2022/06/11 06:40:34;;;;;;;;;;;24.80;51.00;;;;;;5076015;28;19947;-61
2022/06/11 06:42:59;;;;;;;;;;;24.80;51.00;;;;;;5058292;28;19956;-61
2022/06/11 06:45:25;;;;;;;;;;;24.80;51.00;;;;;;5075958;28;19909;-61
2022/06/11 06:47:50;;;;;;;;;;;24.80;51.10;;;;;;5075735;28;19964;-61
2022/06/11 06:50:16;;;;;;;;;;;24.80;51.10;;;;;;5075792;28;19909;-61
2022/06/11 06:52:41;;;;;;;;;;;24.80;51.10;;;;;;5075686;28;19917;-61
2022/06/11 06:55:07;;;;;;;;;;;24.80;51.00;;;;;;5075740;28;19908;-61
2022/06/11 06:57:32;;;;;;;;;;;24.80;51.10;;;;;;5075752;28;19909;-60
2022/06/11 06:59:58;;;;;;;;;;;24.80;51.30;;;;;;5075656;28;19916;-60
2022/06/11 07:02:25;;;;;;;;;;;24.80;51.20;;;;;;5057844;28;19908;-61
2022/06/11 07:04:50;;;;;;;;;;;24.90;51.40;;;;;;5075490;28;19916;-61
2022/06/11 07:07:16;;;;;;;;;;;24.80;51.20;;;;;;5075537;28;20003;-61
2022/06/11 07:09:41;;;;;;;;;;;24.90;51.20;;;;;;5057599;28;19915;-61
2022/06/11 07:12:07;;;;;;;;;;;24.90;51.20;;;;;;5075476;28;19966;-61
2022/06/11 07:14:32;;;;;;;;;;;24.90;51.50;;;;;;5075640;28;19915;-61
2022/06/11 07:16:58;;;;;;;;;;;24.90;51.50;;;;;;5075421;28;19963;-61
2022/06/11 07:19:25;;;;;;;;;;;24.80;51.40;;;;;;5075202;28;20257;-61
2022/06/11 07:21:52;;;;;;;;;;;24.80;51.40;;;;;;5075175;28;19908;-61
2022/06/11 07:24:18;;;;;;;;;;;24.80;51.30;;;;;;5057223;28;20357;-61
2022/06/11 07:26:44;;;;;;;;;;;24.80;51.40;;;;;;5075317;28;20003;-61
2022/06/11 07:29:11;;;;;;;;;;;24.80;51.40;;;;;;5057057;28;19991;-61
2022/06/11 07:31:37;;;;;;;;;;;24.80;51.40;;;;;;5057422;28;20253;-61
2022/06/11 07:34:02;;;;;;;;;;;24.90;51.40;;;;;;5057132;28;19913;-61
2022/06/11 07:36:28;;;;;;;;;;;24.90;51.50;;;;;;5057203;28;19908;-61
2022/06/11 07:38:53;;;;;;;;;;;24.90;51.50;;;;;;5074862;28;19908;-61
2022/06/11 07:41:19;;;;;;;;;;;24.90;51.50;;;;;;5074788;28;19918;-61
2022/06/11 07:43:44;;;;;;;;;;;24.90;51.50;;;;;;5090467;28;19916;-61
2022/06/11 07:46:10;;;;;;;;;;;24.90;51.60;;;;;;5074842;28;19916;-61
2022/06/11 07:48:35;;;;;;;;;;;24.90;51.60;;;;;;5074551;28;19995;-61
2022/06/11 07:51:00;;;;;;;;;;;24.90;51.50;;;;;;5074658;28;19966;-61
2022/06/11 07:53:26;;;;;;;;;;;24.90;51.50;;;;;;5056941;28;19912;-61
2022/06/11 07:55:52;;;;;;;;;;;25.00;51.50;;;;;;5056671;28;20372;-61
2022/06/11 07:58:19;;;;;;;;;;;25.00;51.50;;;;;;5074550;28;19909;-61
2022/06/11 08:00:45;;;;;;;;;;;25.00;51.50;;;;;;5090025;28;19909;-61
2022/06/11 08:03:11;;;;;;;;;;;25.00;51.50;;;;;;5056400;28;20400;-62
2022/06/11 08:05:36;;;;;;;;;;;25.00;51.50;;;;;;5056508;28;19916;-61
2022/06/11 08:08:02;;;;;;;;;;;25.00;51.30;;;;;;5089889;28;20334;-61
2022/06/11 08:10:27;;;;;;;;;;;25.00;51.60;;;;;;5074610;28;19915;-61
2022/06/11 08:12:53;;;;;;;;;;;25.00;51.60;;;;;;5074148;28;19912;-61
2022/06/11 08:15:18;;;;;;;;;;;25.00;51.50;;;;;;5074136;28;19908;-60
2022/06/11 08:17:44;;;;;;;;;;;25.10;51.70;;;;;;5074178;28;20391;-61
2022/06/11 08:20:11;;;;;;;;;;;25.00;51.50;;;;;;5074094;28;19966;-61
2022/06/11 08:22:37;;;;;;;;;;;25.00;51.60;;;;;;5074019;28;19970;-62
2022/06/11 08:25:03;;;;;;;;;;;25.00;51.60;;;;;;5073958;28;19912;-62
2022/06/11 08:27:28;;;;;;;;;;;25.00;51.50;;;;;;5073870;28;19915;-61
2022/06/11 08:29:53;;;;;;;;;;;25.00;51.50;;;;;;5073550;28;19915;-62
2022/06/11 08:32:19;;;;;;;;;;;25.00;51.60;;;;;;5073553;28;19970;-61
2022/06/11 08:34:46;;;;;;;;;;;25.00;51.60;;;;;;5073820;28;19908;-61
2022/06/11 08:37:12;;;;;;;;;;;25.00;51.70;;;;;;5073815;28;19916;-61
2022/06/11 08:39:37;;;;;;;;;;;25.00;51.80;;;;;;5073606;28;20368;-61
2022/06/11 08:42:03;;;;;;;;;;;24.90;51.60;;;;;;5055766;28;19915;-62
2022/06/11 08:44:30;;;;;;;;;;;25.00;51.80;;;;;;5055794;28;20324;-61
2022/06/11 08:46:55;;;;;;;;;;;25.00;51.90;;;;;;5073400;28;19935;-61
2022/06/11 08:49:23;;;;;;;;;;;24.90;51.90;;;;;;5072182;28;19909;-61
2022/06/11 08:51:51;;;;;;;;;;;24.90;52.00;;;;;;5073345;28;19962;-61
2022/06/11 08:54:18;;;;;;;;;;;24.90;52.10;;;;;;5055580;28;19908;-61
2022/06/11 08:56:52;;;;;;;;;;;24.90;51.90;;;;;;5072271;28;20276;-61
2022/06/11 08:59:18;;;;;;;;;;;24.90;51.90;;;;;;5073296;28;19908;-61
2022/06/11 09:01:57;;;;;;;;;;;24.90;51.70;;;;;;5073659;28;19931;-61
2022/06/11 09:04:26;;;;;;;;;;;24.90;51.80;;;;;;5073240;28;19995;-61
2022/06/11 09:07:02;;;;;;;;;;;24.90;51.80;;;;;;5073591;28;19947;-61
2022/06/11 09:09:44;;;;;;;;;;;24.90;51.70;;;;;;5055179;28;20000;-61
2022/06/11 09:12:09;;;;;;;;;;;25.00;51.60;;;;;;5073084;28;20376;-61
2022/06/11 09:14:38;;;;;;;;;;;25.00;51.40;;;;;;5073286;28;19909;-61
2022/06/11 09:17:25;;;;;;;;;;;25.00;51.50;;;;;;5073031;28;19908;-61
2022/06/11 09:19:51;;;;;;;;;;;25.00;51.50;;;;;;5055185;28;19969;-61
2022/06/11 09:22:25;;;;;;;;;;;25.00;51.40;;;;;;5055045;28;20377;-61
2022/06/11 09:25:09;;;;;;;;;;;25.00;51.20;;;;;;5073052;28;20398;-61
2022/06/11 09:27:39;;;;;;;;;;;25.00;51.20;;;;;;5073274;28;19920;-61
2022/06/11 09:30:05;;;;;;;;;;;25.10;51.30;;;;;;5088527;28;20410;-61
2022/06/11 09:32:33;;;;;;;;;;;25.10;51.30;;;;;;5073092;28;19919;-61
2022/06/11 09:35:04;;;;;;;;;;;25.10;51.10;;;;;;5088539;28;20265;-61
2022/06/11 09:37:33;;;;;;;;;;;25.10;51.10;;;;;;5055235;28;19995;-61
2022/06/11 09:40:04;;;;;;;;;;;25.10;51.00;;;;;;5054938;28;20376;-61
2022/06/11 09:42:37;;;;;;;;;;;25.20;50.90;;;;;;5073721;28;20383;-61
2022/06/11 09:45:09;;;;;;;;;;;25.20;50.70;;;;;;5059120;28;19931;-61
2022/06/11 09:47:53;;;;;;;;;;;25.20;50.70;;;;;;5058945;28;19924;-62
2022/06/11 09:50:26;;;;;;;;;;;25.20;50.80;;;;;;5076946;28;19943;-61
2022/06/11 09:53:10;;;;;;;;;;;25.20;50.70;;;;;;5042233;28;20452;-61
2022/06/11 09:55:38;;;;;;;;;;;25.20;50.60;;;;;;5076834;28;19915;-61
2022/06/11 09:58:16;;;;;;;;;;;25.30;50.60;;;;;;5059220;28;20293;-61
2022/06/11 10:00:48;;;;;;;;;;;25.30;50.40;;;;;;5076730;28;19952;-62
2022/06/11 10:03:30;;;;;;;;;;;25.30;50.40;;;;;;5058795;28;19943;-62
2022/06/11 10:06:01;;;;;;;;;;;25.30;50.30;;;;;;5076764;28;20265;-61
2022/06/11 10:08:35;;;;;;;;;;;25.30;50.20;;;;;;5076597;28;20002;-61
2022/06/11 10:11:01;;;;;;;;;;;25.30;50.30;;;;;;5058517;28;19962;-62
2022/06/11 10:13:33;;;;;;;;;;;25.40;50.30;;;;;;5058937;28;19909;-61
2022/06/11 10:15:59;;;;;;;;;;;25.40;50.30;;;;;;5042382;28;19962;-61
2022/06/11 10:18:26;;;;;;;;;;;25.40;50.20;;;;;;5075231;28;19909;-61
2022/06/11 10:20:56;;;;;;;;;;;25.40;50.10;;;;;;5058440;28;19912;-61
2022/06/11 10:23:37;;;;;;;;;;;25.40;50.10;;;;;;5058387;28;19929;-61
2022/06/11 10:26:14;;;;;;;;;;;25.40;50.00;;;;;;5076262;28;19962;-62
2022/06/11 10:28:55;;;;;;;;;;;25.40;49.90;;;;;;5076218;28;20273;-61
2022/06/11 10:31:20;;;;;;;;;;;25.40;50.00;;;;;;5076020;28;20323;-61
2022/06/11 10:33:59;;;;;;;;;;;25.40;50.10;;;;;;5058202;28;19914;-61
2022/06/11 10:36:32;;;;;;;;;;;25.40;50.20;;;;;;5058218;28;19955;-61
2022/06/11 10:38:59;;;;;;;;;;;25.40;50.30;;;;;;5074742;28;19932;-62
2022/06/11 10:41:27;;;;;;;;;;;25.40;50.20;;;;;;5076009;28;20229;-61
2022/06/11 10:43:55;;;;;;;;;;;25.40;50.20;;;;;;5075917;28;19915;-61
2022/06/11 10:46:21;;;;;;;;;;;25.40;50.20;;;;;;5057799;28;19958;-61
2022/06/11 10:48:47;;;;;;;;;;;25.40;49.90;;;;;;5075841;28;19997;-61
2022/06/11 10:51:18;;;;;;;;;;;25.40;49.90;;;;;;5075740;28;19923;-61
2022/06/11 10:54:04;;;;;;;;;;;25.40;50.10;;;;;;5057482;28;19908;-61
2022/06/11 10:56:48;;;;;;;;;;;25.40;50.20;;;;;;5057906;28;19913;-61
2022/06/11 10:59:17;;;;;;;;;;;25.50;50.30;;;;;;5075551;28;19961;-61
2022/06/11 11:01:47;;;;;;;;;;;25.40;50.30;;;;;;5058038;28;19915;-61
2022/06/11 11:04:30;;;;;;;;;;;25.40;50.30;;;;;;5075527;28;19916;-61
2022/06/11 11:07:12;;;;;;;;;;;25.40;50.30;;;;;;5075695;28;19955;-61
2022/06/11 11:09:38;;;;;;;;;;;25.40;50.30;;;;;;5075447;28;19963;-61
2022/06/11 11:12:06;;;;;;;;;;;25.40;50.40;;;;;;5075596;28;19948;-61
2022/06/11 11:14:32;;;;;;;;;;;25.40;50.40;;;;;;5057929;28;19962;-61
2022/06/11 11:17:00;;;;;;;;;;;25.40;50.20;;;;;;5075313;28;20356;-61
2022/06/11 11:19:28;;;;;;;;;;;25.40;50.10;;;;;;5057500;28;19916;-61
2022/06/11 11:22:07;;;;;;;;;;;25.40;50.30;;;;;;5057499;28;19916;-61
2022/06/11 11:24:41;;;;;;;;;;;25.40;50.20;;;;;;5057440;28;20404;-61
2022/06/11 11:27:09;;;;;;;;;;;25.50;50.20;;;;;;5057337;28;19909;-61
2022/06/11 11:29:35;;;;;;;;;;;25.50;50.30;;;;;;5057449;28;19916;-61
2022/06/11 11:32:06;;;;;;;;;;;25.50;50.10;;;;;;5057117;28;20364;-61
2022/06/11 11:34:32;;;;;;;;;;;25.50;50.20;;;;;;5075039;28;19944;-61
2022/06/11 11:37:16;;;;;;;;;;;25.50;50.10;;;;;;5075037;28;19912;-61
2022/06/11 11:40:07;;;;;;;;;;;25.50;50.10;;;;;;5074881;28;19909;-61
2022/06/11 11:42:36;;;;;;;;;;;25.50;50.10;;;;;;5051320;28;19909;-61
2022/06/11 11:45:37;;;;;;;;;;;25.60;50.20;;;;;;5074824;28;19909;-61
2022/06/11 11:48:03;;;;;;;;;;;25.60;50.20;;;;;;5012681;28;19917;-61
2022/06/11 11:50:34;;;;;;;;;;;25.60;50.10;;;;;;5044700;28;19908;-61
2022/06/11 11:53:02;;;;;;;;;;;25.60;50.10;;;;;;5074647;28;19917;-61
2022/06/11 11:55:31;;;;;;;;;;;25.60;50.20;;;;;;5056746;28;19915;-61
2022/06/11 11:58:09;;;;;;;;;;;25.60;50.10;;;;;;5074519;28;19908;-61
2022/06/11 12:00:41;;;;;;;;;;;25.60;49.90;;;;;;5056601;28;20009;-61
2022/06/11 12:03:13;;;;;;;;;;;25.60;49.70;;;;;;5074235;28;19908;-62
2022/06/11 12:05:39;;;;;;;;;;;25.60;49.50;;;;;;5073606;28;20368;-61
2022/06/11 12:08:10;;;;;;;;;;;25.70;49.40;;;;;;5074229;28;19913;-61
2022/06/11 12:10:39;;;;;;;;;;;25.80;49.20;;;;;;5074673;28;19908;-61
2022/06/11 12:13:23;;;;;;;;;;;25.80;49.50;;;;;;5074256;28;19919;-61
2022/06/11 12:15:53;;;;;;;;;;;25.90;49.60;;;;;;5074106;28;19912;-61
2022/06/11 12:18:18;;;;;;;;;;;25.90;49.50;;;;;;5074142;28;19909;-61
2022/06/11 12:20:44;;;;;;;;;;;25.90;49.30;;;;;;5056316;28;19908;-61
2022/06/11 12:23:29;;;;;;;;;;;25.90;49.10;;;;;;5055903;28;19912;-61
2022/06/11 12:25:56;;;;;;;;;;;25.90;49.20;;;;;;5073920;28;19923;-61
2022/06/11 12:28:23;;;;;;;;;;;25.90;49.50;;;;;;5056128;28;19958;-62
2022/06/11 12:30:49;;;;;;;;;;;25.90;49.20;;;;;;5055994;28;19944;-61
2022/06/11 12:33:14;;;;;;;;;;;25.90;49.10;;;;;;5073782;28;20325;-61
2022/06/11 12:35:58;;;;;;;;;;;26.00;49.20;;;;;;5055826;28;19999;-61
2022/06/11 12:38:24;;;;;;;;;;;26.00;48.90;;;;;;5073890;28;19908;-61
2022/06/11 12:40:55;;;;;;;;;;;26.00;48.80;;;;;;5055715;28;20435;-61
2022/06/11 12:43:30;;;;;;;;;;;26.00;49.20;;;;;;5072020;28;19919;-61
2022/06/11 12:46:08;;;;;;;;;;;26.00;49.20;;;;;;5073555;28;19975;-61
2022/06/11 12:48:38;;;;;;;;;;;26.00;49.20;;;;;;5055527;28;20007;-61
2022/06/11 12:51:12;;;;;;;;;;;26.00;48.70;;;;;;5073349;28;19925;-61
2022/06/11 12:53:51;;;;;;;;;;;26.10;49.00;;;;;;5072955;28;21225;-61
2022/06/11 12:56:16;;;;;;;;;;;26.10;49.30;;;;;;5073429;28;19908;-61
2022/06/11 12:58:48;;;;;;;;;;;26.20;49.30;;;;;;5073490;28;19938;-61
2022/06/11 13:01:34;;;;;;;;;;;26.20;49.30;;;;;;5073259;28;19923;-61
2022/06/11 13:04:18;;;;;;;;;;;26.10;49.30;;;;;;5072609;28;19909;-61
2022/06/11 13:06:50;;;;;;;;;;;26.10;49.30;;;;;;5073345;28;19909;-61
2022/06/11 13:09:27;;;;;;;;;;;26.20;49.30;;;;;;5073179;28;19912;-61
2022/06/11 13:12:04;;;;;;;;;;;26.10;49.10;;;;;;5073095;28;19913;-61
2022/06/11 13:14:46;;;;;;;;;;;26.20;49.10;;;;;;5055376;28;20284;-61
2022/06/11 13:17:24;;;;;;;;;;;26.20;49.30;;;;;;5055096;28;19954;-61
2022/06/11 13:19:53;;;;;;;;;;;26.20;49.30;;;;;;5071780;28;19934;-61
2022/06/11 13:22:22;;;;;;;;;;;26.20;49.00;;;;;;5072974;28;19909;-61
2022/06/11 13:24:53;;;;;;;;;;;26.20;49.20;;;;;;5055177;28;19941;-61
2022/06/11 13:27:42;;;;;;;;;;;26.30;48.80;;;;;;5073283;28;20290;-61
2022/06/11 13:30:22;;;;;;;;;;;26.30;48.80;;;;;;5064681;28;19948;-61
2022/06/11 13:32:59;;;;;;;;;;;26.30;48.40;;;;;;5055006;28;19913;-61
2022/06/11 13:35:27;;;;;;;;;;;26.30;48.50;;;;;;5054960;28;19991;-61
2022/06/11 13:38:04;;;;;;;;;;;26.40;48.80;;;;;;5072844;28;19962;-61
2022/06/11 13:40:48;;;;;;;;;;;26.40;48.40;;;;;;5088507;28;19909;-61
2022/06/11 13:43:35;;;;;;;;;;;26.40;48.50;;;;;;5072760;28;19908;-61
2022/06/11 13:46:07;;;;;;;;;;;26.40;48.80;;;;;;5071524;28;19913;-62
2022/06/11 13:48:39;;;;;;;;;;;26.40;48.50;;;;;;5072618;28;19920;-61
2022/06/11 13:51:04;;;;;;;;;;;26.40;48.40;;;;;;5054785;28;19919;-62
2022/06/11 13:56:22;;;;;;;;;;;26.50;48.40;;;;;;5079524;28;19932;-61
2022/06/11 13:58:55;;;;;;;;;;;26.50;48.70;;;;;;5072810;28;19916;-61
2022/06/11 14:01:38;;;;;;;;;;;26.50;48.40;;;;;;5054820;28;19919;-61
2022/06/11 14:04:05;;;;;;;;;;;26.50;48.30;;;;;;5054708;28;19916;-62
2022/06/11 14:06:31;;;;;;;;;;;26.50;47.90;;;;;;5054754;28;19915;-61
2022/06/11 14:09:02;;;;;;;;;;;26.60;48.50;;;;;;5072511;28;20273;-61
2022/06/11 14:11:27;;;;;;;;;;;26.60;48.70;;;;;;5072583;28;20007;-61
2022/06/11 14:13:57;;;;;;;;;;;26.60;48.70;;;;;;5072639;28;19940;-61
2022/06/11 14:16:32;;;;;;;;;;;26.60;48.80;;;;;;5054987;28;19957;-62
2022/06/11 14:18:58;;;;;;;;;;;26.60;48.70;;;;;;5072832;28;19912;-61
2022/06/11 14:21:38;;;;;;;;;;;26.60;48.80;;;;;;5054623;28;19915;-61
2022/06/11 14:24:05;;;;;;;;;;;26.50;48.30;;;;;;5072497;28;19932;-61
2022/06/11 14:26:45;;;;;;;;;;;26.60;48.60;;;;;;5072524;28;19913;-62
2022/06/11 14:29:25;;;;;;;;;;;26.60;48.70;;;;;;5074103;28;19918;-61
2022/06/11 14:31:58;;;;;;;;;;;26.60;48.60;;;;;;5076103;28;19912;-61
2022/06/11 14:34:25;;;;;;;;;;;26.50;48.40;;;;;;5058264;28;19909;-61